createdAt,value
2018-05-16T00:01:39.469Z,24.90
2018-05-16T00:04:28.315Z,26.20
2018-05-16T00:07:07.825Z,24.70
2018-05-16T00:09:57.688Z,26.67
2018-05-16T00:12:39.680Z,24.20
2018-05-16T00:15:19.670Z,24.40
2018-05-16T00:18:01.502Z,26.33
2018-05-16T00:20:40.596Z,25.53
2018-05-16T00:23:15.007Z,25.20
2018-05-16T00:25:54.348Z,25.53
2018-05-16T00:31:15.697Z,26.60
2018-05-16T00:33:55.448Z,24.90
2018-05-16T00:36:35.465Z,26.17
2018-05-16T00:39:16.717Z,25.20
2018-05-16T00:41:58.618Z,27.53
2018-05-16T00:44:39.724Z,24.10
2018-05-16T00:47:20.967Z,26.17
2018-05-16T00:50:02.962Z,28.70
2018-05-16T00:52:44.415Z,27.77
2018-05-16T00:55:26.403Z,28.97
2018-05-16T00:58:08.512Z,26.30
2018-05-16T01:00:51.184Z,29.00
2018-05-16T01:03:30.979Z,29.27
2018-05-16T01:06:13.480Z,28.80
2018-05-16T01:11:43.389Z,28.93
2018-05-16T01:14:23.388Z,28.50
2018-05-16T01:17:02.283Z,26.30
2018-05-16T01:22:15.302Z,30.30
2018-05-16T01:24:58.078Z,28.80
2018-05-16T01:30:16.836Z,29.60
2018-05-16T01:32:57.405Z,29.90
2018-05-16T01:35:37.493Z,30.27
2018-05-16T01:38:17.505Z,27.93
2018-05-16T01:40:57.641Z,29.27
2018-05-16T01:46:16.992Z,28.43
2018-05-16T01:49:03.113Z,27.57
2018-05-16T01:51:53.284Z,29.97
2018-05-16T01:57:15.482Z,32.10
2018-05-16T01:59:47.975Z,32.63
2018-05-16T02:05:10.793Z,27.73
2018-05-16T02:08:01.715Z,32.53
2018-05-16T02:10:41.823Z,32.60
2018-05-16T02:13:23.370Z,29.87
2018-05-16T02:16:13.746Z,29.07
2018-05-16T02:18:52.836Z,29.20
2018-05-16T02:21:34.640Z,29.43
2018-05-16T02:24:14.408Z,31.17
2018-05-16T02:27:05.820Z,30.97
2018-05-16T02:29:48.885Z,31.03
2018-05-16T02:32:29.950Z,32.90
2018-05-16T02:35:11.596Z,33.07
2018-05-16T02:37:50.871Z,32.70
2018-05-16T02:40:32.866Z,32.70
2018-05-16T02:43:17.259Z,33.63
2018-05-16T02:45:58.289Z,33.80
2018-05-16T02:48:40.081Z,34.20
2018-05-16T02:51:21.947Z,33.60
2018-05-16T02:54:03.098Z,35.17
2018-05-16T02:56:42.681Z,32.13
2018-05-16T03:02:04.469Z,32.17
2018-05-16T03:04:46.412Z,35.53
2018-05-16T03:07:28.424Z,36.00
2018-05-16T03:10:10.607Z,36.73
2018-05-16T03:12:54.693Z,33.30
2018-05-16T03:15:37.803Z,35.10
2018-05-16T03:18:17.719Z,36.23
2018-05-16T03:20:59.676Z,33.60
2018-05-16T03:23:41.594Z,36.55
2018-05-16T03:26:23.860Z,36.27
2018-05-16T03:29:05.488Z,32.60
2018-05-16T03:31:49.421Z,35.20
2018-05-16T03:37:11.140Z,34.90
2018-05-16T03:39:54.586Z,33.80
2018-05-16T03:42:42.391Z,36.23
2018-05-16T03:45:25.984Z,31.57
2018-05-16T03:48:08.060Z,36.33
2018-05-16T03:50:50.720Z,35.03
2018-05-16T03:56:11.609Z,35.30
2018-05-16T03:58:57.703Z,36.03
2018-05-16T04:01:40.076Z,34.33
2018-05-16T04:04:21.912Z,31.83
2018-05-16T04:09:43.822Z,33.73
2018-05-16T04:12:24.612Z,32.43
2018-05-16T04:15:07.065Z,31.10
2018-05-16T04:17:49.961Z,32.37
2018-05-16T04:20:29.237Z,34.33
2018-05-16T04:23:11.140Z,33.53
2018-05-16T04:28:38.296Z,33.77
2018-05-16T04:31:19.258Z,31.63
2018-05-16T04:33:59.401Z,30.63
2018-05-16T04:36:40.515Z,32.20
2018-05-16T04:39:22.157Z,32.13
2018-05-16T04:44:41.575Z,34.50
2018-05-16T04:47:23.617Z,36.10
2018-05-16T04:50:05.923Z,34.47
2018-05-16T04:52:46.612Z,35.00
2018-05-16T04:58:08.084Z,32.53
2018-05-16T05:00:49.782Z,33.93
2018-05-16T05:03:32.308Z,34.30
2018-05-16T05:08:56.794Z,33.00
2018-05-16T05:11:37.595Z,33.00
2018-05-16T05:14:18.586Z,29.67
2018-05-16T05:17:05.093Z,32.53
2018-05-16T05:22:24.258Z,33.33
2018-05-16T05:25:06.122Z,32.37
2018-05-16T05:30:26.034Z,35.77
2018-05-16T05:33:28.232Z,34.10
2018-05-16T05:39:13.586Z,31.00
2018-05-16T05:47:36.078Z,35.87
2018-05-16T05:50:18.070Z,36.00
2018-05-16T05:53:25.133Z,33.37
2018-05-16T05:56:06.236Z,34.80
2018-05-16T05:59:06.875Z,32.43
2018-05-16T06:21:33.074Z,22.30
2018-05-16T06:27:23.543Z,22.40
2018-05-16T06:30:04.984Z,23.30
2018-05-16T06:38:30.366Z,19.25
2018-05-16T06:50:18.598Z,16.20
2018-05-16T06:56:06.066Z,16.30
2018-05-16T07:04:55.118Z,15.47
2018-05-16T07:10:34.165Z,17.50
2018-05-16T07:16:28.929Z,13.73
2018-05-16T07:19:11.941Z,15.00
2018-05-16T07:22:00.478Z,17.87
2018-05-16T07:24:43.523Z,18.00
2018-05-16T07:27:34.284Z,14.80
2018-05-16T07:30:26.536Z,12.90
2018-05-16T07:33:07.460Z,12.60
2018-05-16T07:35:49.964Z,12.17
2018-05-16T07:38:37.406Z,12.20
2018-05-16T07:41:20.372Z,11.97
2018-05-16T07:44:00.842Z,10.83
2018-05-16T07:46:48.675Z,11.90
2018-05-16T07:49:34.054Z,12.10
2018-05-16T07:52:27.350Z,11.47
2018-05-16T07:55:08.368Z,10.27
2018-05-16T07:57:36.429Z,11.80
2018-05-16T08:00:18.019Z,12.10
2018-05-16T08:02:58.028Z,10.30
2018-05-16T08:05:40.176Z,10.80
2018-05-16T08:08:22.863Z,11.17
2018-05-16T08:11:04.174Z,15.93
2018-05-16T08:13:45.820Z,12.13
2018-05-16T08:16:28.274Z,14.03
2018-05-16T08:19:11.401Z,15.23
2018-05-16T08:21:53.099Z,14.13
2018-05-16T08:24:36.464Z,13.47
2018-05-16T08:27:18.528Z,14.17
2018-05-16T08:29:59.010Z,14.20
2018-05-16T08:32:44.705Z,14.33
2018-05-16T08:35:27.240Z,14.30
2018-05-16T08:44:23.282Z,17.33
2018-05-16T08:53:07.340Z,22.40
2018-05-16T08:56:06.912Z,25.40
2018-05-16T08:59:55.497Z,27.10
2018-05-16T09:02:46.065Z,31.57
2018-05-16T09:14:36.085Z,32.83
2018-05-16T09:17:22.826Z,32.93
2018-05-16T09:20:05.395Z,31.10
2018-05-16T09:22:47.775Z,32.47
2018-05-16T09:25:43.439Z,31.10
2018-05-16T09:28:24.617Z,27.27
2018-05-16T09:31:05.670Z,24.90
2018-05-16T09:40:05.523Z,23.60
2018-05-16T09:42:56.128Z,25.17
2018-05-16T09:48:41.403Z,26.27
2018-05-16T10:03:26.501Z,36.40
2018-05-16T10:15:15.181Z,40.07
2018-05-16T10:17:56.550Z,39.30
2018-05-16T10:32:45.399Z,41.60
2018-05-16T10:35:45.681Z,42.60
2018-05-16T10:38:34.942Z,41.53
2018-05-16T10:41:27.290Z,41.20
2018-05-16T10:50:37.738Z,42.27
2018-05-16T10:56:26.965Z,45.23
2018-05-16T11:02:05.085Z,42.40
2018-05-16T11:04:46.558Z,41.27
2018-05-16T11:07:29.872Z,40.70
2018-05-16T11:10:11.751Z,35.43
2018-05-16T11:12:54.757Z,42.00
2018-05-16T11:15:38.049Z,42.67
2018-05-16T11:18:18.585Z,45.27
2018-05-16T11:23:52.865Z,38.33
2018-05-16T11:26:34.100Z,41.23
2018-05-16T11:29:19.420Z,41.07
2018-05-16T11:32:00.638Z,41.67
2018-05-16T11:34:48.401Z,42.57
2018-05-16T11:37:35.724Z,41.67
2018-05-16T11:43:28.773Z,37.70
2018-05-16T11:51:29.098Z,43.73
2018-05-16T11:54:16.672Z,43.37
2018-05-16T11:56:59.268Z,43.57
2018-05-16T12:00:00.032Z,42.13
2018-05-16T12:02:43.169Z,42.10
2018-05-16T12:08:22.815Z,41.03
2018-05-16T12:13:44.058Z,41.97
2018-05-16T12:16:33.738Z,43.27
2018-05-16T12:22:07.280Z,43.87
2018-05-16T12:24:46.648Z,45.77
2018-05-16T12:27:25.805Z,45.80
2018-05-16T12:30:07.205Z,46.77
2018-05-16T12:38:24.688Z,46.73
2018-05-16T12:49:34.115Z,44.53
2018-05-16T12:52:07.635Z,43.40
2018-05-16T12:55:33.049Z,44.27
2018-05-16T13:00:55.833Z,42.57
2018-05-16T13:03:38.753Z,42.03
2018-05-16T13:06:11.876Z,44.50
2018-05-16T13:08:45.157Z,45.90
2018-05-16T13:11:20.694Z,45.30
2018-05-16T13:16:49.456Z,43.63
2018-05-16T13:27:56.032Z,47.70
2018-05-16T13:30:31.291Z,46.70
2018-05-16T13:35:55.023Z,44.33
2018-05-16T13:38:22.856Z,47.27
2018-05-16T13:41:00.189Z,47.13
2018-05-16T13:52:23.215Z,47.03
2018-05-16T13:57:43.434Z,46.13
2018-05-16T14:00:17.070Z,48.50
2018-05-16T14:02:46.811Z,46.50
2018-05-16T14:14:02.949Z,39.60
2018-05-16T14:22:46.404Z,37.60
2018-05-16T14:31:16.187Z,32.57
2018-05-16T14:43:04.161Z,32.27
2018-05-16T14:45:50.165Z,34.40
2018-05-16T14:57:40.849Z,37.00
2018-05-16T15:15:39.269Z,36.10
2018-05-16T15:18:22.083Z,38.80
2018-05-16T15:30:09.092Z,32.73
2018-05-16T15:35:56.432Z,34.27
2018-05-16T15:41:27.672Z,29.10
2018-05-16T15:44:20.483Z,29.90
2018-05-16T15:47:05.395Z,28.20
2018-05-16T15:58:01.632Z,28.67
2018-05-16T16:09:25.808Z,31.93
2018-05-16T16:12:12.878Z,33.47
2018-05-16T16:14:56.153Z,29.70
2018-05-16T16:17:37.410Z,30.77
2018-05-16T16:20:19.559Z,28.53
2018-05-16T16:23:02.631Z,30.87
2018-05-16T16:25:48.411Z,29.20
2018-05-16T16:31:30.597Z,32.77
2018-05-16T16:34:12.730Z,33.47
2018-05-16T16:36:56.050Z,29.17
2018-05-16T16:42:31.625Z,32.47
2018-05-16T16:45:12.916Z,29.73
2018-05-16T16:47:52.741Z,29.20
2018-05-16T16:50:37.638Z,32.03
2018-05-16T18:11:40.259Z,31.35
2018-05-16T18:17:23.400Z,30.70
2018-05-16T19:25:47.636Z,37.20
2018-05-16T20:01:49.451Z,28.90
2018-05-16T20:26:33.484Z,37.60
2018-05-16T20:37:38.245Z,36.30
2018-05-16T21:19:56.570Z,27.70
2018-05-16T21:28:47.743Z,26.67
2018-05-16T21:34:36.971Z,25.67
2018-05-16T21:40:32.987Z,27.00
2018-05-16T21:51:47.013Z,26.57
2018-05-16T21:54:29.064Z,25.73
2018-05-16T21:57:16.650Z,24.83
2018-05-16T22:00:07.341Z,22.27
2018-05-16T22:02:48.555Z,23.43
2018-05-16T22:05:49.822Z,22.10
2018-05-16T22:08:32.026Z,20.80
2018-05-16T22:11:15.753Z,21.07
2018-05-16T22:13:55.571Z,22.33
2018-05-16T22:16:37.839Z,22.23
2018-05-16T22:19:19.409Z,21.40
2018-05-16T22:22:00.975Z,24.50
2018-05-16T22:24:42.076Z,22.97
2018-05-16T22:27:30.413Z,21.23
2018-05-16T22:30:10.945Z,22.60
2018-05-16T22:35:57.618Z,21.33
2018-05-16T22:38:38.661Z,23.47
2018-05-16T22:41:28.817Z,23.80
2018-05-16T22:44:14.740Z,23.30
2018-05-16T22:46:56.050Z,25.30
2018-05-16T22:49:36.712Z,24.53
2018-05-16T22:52:18.228Z,26.07
2018-05-16T22:54:58.940Z,29.90
2018-05-16T22:57:40.651Z,24.43
2018-05-16T23:00:27.365Z,27.03
2018-05-16T23:03:08.257Z,27.17
2018-05-16T23:05:47.519Z,31.50
2018-05-16T23:08:27.872Z,33.50
2018-05-16T23:11:09.144Z,33.30
2018-05-16T23:13:50.133Z,33.00
2018-05-16T23:16:35.501Z,33.63
2018-05-16T23:19:16.960Z,32.57
2018-05-16T23:21:57.935Z,37.70
2018-05-16T23:24:49.024Z,32.30
2018-05-16T23:27:30.444Z,33.20
2018-05-16T23:30:12.175Z,32.13
2018-05-16T23:32:53.325Z,37.83
2018-05-16T23:35:37.398Z,37.60
2018-05-16T23:38:16.508Z,37.00
2018-05-16T23:40:57.205Z,40.90
2018-05-16T23:43:37.142Z,43.50
